Time;durP1;ratioP1;P1;durP2;ratioP2;P2;SDS_P1;SDS_P2;PMS_P1;PMS_P2;Temp;Humidity;BMP_temperature;BMP_pressure;BME280_temperature;BME280_humidity;BME280_pressure;Samples;Min_cycle;Max_cycle;Signal;HPM_P1;HPM_P2
2021/08/13 00:02:15;;;;;;;11.90;8.70;;;;;;;;;;4896990;29;20103;-67
2021/08/13 00:04:41;;;;;;;11.93;9.20;;;;;;;;;;4897030;29;20094;-66
2021/08/13 00:07:08;;;;;;;9.82;7.95;;;;;;;;;;4896568;29;20128;-66
2021/08/13 00:09:35;;;;;;;11.15;8.60;;;;;;;;;;4896405;29;20389;-66
2021/08/13 00:12:01;;;;;;;11.73;8.52;;;;;;;;;;4910307;29;20725;-66
2021/08/13 00:14:28;;;;;;;12.25;8.60;;;;;;;;;;4898442;29;20580;-66
2021/08/13 00:16:55;;;;;;;12.40;9.20;;;;;;;;;;4896839;29;20089;-67
2021/08/13 00:19:21;;;;;;;10.40;8.38;;;;;;;;;;4897367;29;20127;-66
2021/08/13 00:21:49;;;;;;;11.73;9.65;;;;;;;;;;4916322;29;20084;-65
2021/08/13 00:24:16;;;;;;;12.32;9.73;;;;;;;;;;4915500;29;20091;-66
2021/08/13 00:26:43;;;;;;;12.98;10.15;;;;;;;;;;4915481;29;20056;-66
2021/08/13 00:29:09;;;;;;;11.65;9.35;;;;;;;;;;4915118;29;20091;-66
2021/08/13 00:31:36;;;;;;;11.35;8.90;;;;;;;;;;4915194;29;20135;-66
2021/08/13 00:34:02;;;;;;;10.52;9.15;;;;;;;;;;4915358;29;20052;-66
2021/08/13 00:36:29;;;;;;;13.27;9.13;;;;;;;;;;4916043;29;20432;-66
2021/08/13 00:38:56;;;;;;;12.48;9.32;;;;;;;;;;4915587;29;20083;-66
2021/08/13 00:41:22;;;;;;;11.10;8.85;;;;;;;;;;4902389;29;20095;-67
2021/08/13 00:43:49;;;;;;;13.35;8.88;;;;;;;;;;4896724;29;20409;-66
2021/08/13 00:46:16;;;;;;;12.07;9.27;;;;;;;;;;4896715;29;20052;-66
2021/08/13 00:48:42;;;;;;;11.70;9.48;;;;;;;;;;4904546;29;20084;-66
2021/08/13 00:51:09;;;;;;;15.05;9.10;;;;;;;;;;4915295;29;20079;-67
2021/08/13 00:53:35;;;;;;;10.85;8.50;;;;;;;;;;4915370;29;20539;-66
2021/08/13 00:56:02;;;;;;;11.07;8.40;;;;;;;;;;4915311;29;20147;-65
2021/08/13 00:58:29;;;;;;;11.35;10.07;;;;;;;;;;4905046;29;20076;-66
2021/08/13 01:00:56;;;;;;;14.18;9.10;;;;;;;;;;4876559;29;20092;-66
2021/08/13 01:03:23;;;;;;;11.43;9.10;;;;;;;;;;4891909;29;20057;-66
2021/08/13 01:05:50;;;;;;;12.98;9.00;;;;;;;;;;4877399;29;20568;-66
2021/08/13 01:08:17;;;;;;;13.43;8.88;;;;;;;;;;4877324;29;20092;-65
2021/08/13 01:11:01;;;;;;;17.02;8.80;;;;;;;;;;4877406;29;20081;-66
2021/08/13 01:13:46;;;;;;;15.27;10.95;;;;;;;;;;4876840;29;20505;-66
2021/08/13 01:16:13;;;;;;;10.18;8.95;;;;;;;;;;4877520;29;20092;-65
2021/08/13 01:18:42;;;;;;;11.27;9.30;;;;;;;;;;4877616;29;20053;-65
2021/08/13 01:21:08;;;;;;;12.02;9.52;;;;;;;;;;4879176;29;20092;-66
2021/08/13 01:23:50;;;;;;;11.90;8.75;;;;;;;;;;4880813;29;20489;-66
2021/08/13 01:26:16;;;;;;;10.32;8.13;;;;;;;;;;4879566;29;20087;-66
2021/08/13 01:29:01;;;;;;;11.13;9.13;;;;;;;;;;4891455;29;20083;-66
2021/08/13 01:31:28;;;;;;;16.15;9.02;;;;;;;;;;4918333;29;20095;-66
2021/08/13 01:33:58;;;;;;;11.30;9.07;;;;;;;;;;4917102;29;20052;-66
2021/08/13 01:36:26;;;;;;;10.88;8.68;;;;;;;;;;4918131;29;20080;-65
2021/08/13 04:52:50;;;;;;;12.10;9.07;;;;;;;;;;4877724;29;20081;-65
2021/08/13 04:55:20;;;;;;;11.13;8.68;;;;;;;;;;4881143;29;20082;-66
2021/08/13 04:57:47;;;;;;;13.45;9.88;;;;;;;;;;4881168;29;20563;-65
2021/08/13 05:00:15;;;;;;;12.23;9.05;;;;;;;;;;4876275;29;20081;-65
2021/08/13 05:02:42;;;;;;;12.25;8.88;;;;;;;;;;4862531;29;20421;-67
2021/08/13 05:05:09;;;;;;;13.52;9.05;;;;;;;;;;4861585;29;20090;-66
2021/08/13 05:07:35;;;;;;;10.98;8.65;;;;;;;;;;4862329;29;20519;-66
2021/08/13 05:10:10;;;;;;;9.82;8.82;;;;;;;;;;4861491;29;20077;-65
2021/08/13 05:12:37;;;;;;;12.73;9.20;;;;;;;;;;4857434;29;20092;-65
2021/08/13 05:15:04;;;;;;;11.38;8.85;;;;;;;;;;4858775;29;20104;-66
2021/08/13 05:17:31;;;;;;;11.98;8.93;;;;;;;;;;4862054;29;20057;-69
2021/08/13 05:19:57;;;;;;;12.65;9.77;;;;;;;;;;4846165;29;20077;-69
2021/08/13 05:22:24;;;;;;;11.35;9.40;;;;;;;;;;4861492;29;20053;-68
2021/08/13 05:24:50;;;;;;;11.00;8.80;;;;;;;;;;4862643;29;20112;-69
2021/08/13 05:27:17;;;;;;;12.48;9.45;;;;;;;;;;4845312;29;20076;-69
2021/08/13 05:29:44;;;;;;;11.80;8.73;;;;;;;;;;4845939;29;20090;-70
2021/08/13 05:32:10;;;;;;;11.13;8.98;;;;;;;;;;4845291;29;20049;-70
2021/08/13 05:34:37;;;;;;;11.43;9.23;;;;;;;;;;4862384;29;20093;-66
2021/08/13 05:37:03;;;;;;;12.70;9.05;;;;;;;;;;4862155;29;20097;-65
2021/08/13 05:39:30;;;;;;;11.82;9.85;;;;;;;;;;4861678;29;20054;-66
2021/08/13 05:41:56;;;;;;;12.50;9.82;;;;;;;;;;4861857;29;20054;-66
2021/08/13 05:44:23;;;;;;;11.00;8.88;;;;;;;;;;4861406;29;20085;-66
2021/08/13 05:46:49;;;;;;;12.98;9.35;;;;;;;;;;4861740;29;20100;-66
2021/08/13 05:49:16;;;;;;;13.63;9.50;;;;;;;;;;4861313;29;20089;-66
2021/08/13 05:51:43;;;;;;;17.67;10.63;;;;;;;;;;4861733;29;20120;-66
2021/08/13 05:54:10;;;;;;;14.00;9.80;;;;;;;;;;4859730;29;20536;-67
2021/08/13 05:56:36;;;;;;;12.00;10.13;;;;;;;;;;4859819;29;20204;-67
2021/08/13 05:59:03;;;;;;;13.52;10.05;;;;;;;;;;4859452;29;20108;-68
2021/08/13 06:01:30;;;;;;;12.30;9.80;;;;;;;;;;4859360;29;20107;-67
2021/08/13 06:03:56;;;;;;;11.73;10.18;;;;;;;;;;4858866;29;20539;-67
2021/08/13 06:06:23;;;;;;;12.07;9.40;;;;;;;;;;4859084;29;20121;-67
2021/08/13 06:08:49;;;;;;;13.05;9.77;;;;;;;;;;4858705;29;20383;-67
2021/08/13 06:11:16;;;;;;;12.70;10.07;;;;;;;;;;4859384;29;20101;-67
2021/08/13 06:13:42;;;;;;;12.43;9.63;;;;;;;;;;4859522;29;20054;-67
2021/08/13 06:16:09;;;;;;;12.10;10.10;;;;;;;;;;4859552;29;20093;-67
2021/08/13 06:18:36;;;;;;;11.18;8.82;;;;;;;;;;4859540;29;20117;-67
2021/08/13 06:21:03;;;;;;;13.15;9.35;;;;;;;;;;4857272;29;20092;-67
2021/08/13 06:23:30;;;;;;;14.23;9.80;;;;;;;;;;4858000;29;20485;-67
2021/08/13 06:25:56;;;;;;;13.98;10.10;;;;;;;;;;4859355;29;20493;-67
2021/08/13 06:28:23;;;;;;;11.60;10.05;;;;;;;;;;4857790;29;20089;-67
2021/08/13 06:30:49;;;;;;;12.98;9.48;;;;;;;;;;4859209;29;20080;-67
2021/08/13 06:33:16;;;;;;;10.93;9.50;;;;;;;;;;4858460;29;20148;-67
2021/08/13 06:35:43;;;;;;;15.77;9.80;;;;;;;;;;4854676;29;20149;-67
2021/08/13 06:38:09;;;;;;;14.10;9.93;;;;;;;;;;4838834;29;20054;-68
2021/08/13 06:40:36;;;;;;;12.57;9.68;;;;;;;;;;4854763;29;20084;-68
2021/08/13 06:43:02;;;;;;;14.20;10.05;;;;;;;;;;4846050;29;20474;-68
2021/08/13 06:45:29;;;;;;;11.60;10.10;;;;;;;;;;4847661;29;20081;-68
2021/08/13 06:47:55;;;;;;;14.18;9.18;;;;;;;;;;4848841;29;20045;-68
2021/08/13 06:50:22;;;;;;;12.40;9.80;;;;;;;;;;4847620;29;20149;-68
2021/08/13 06:52:49;;;;;;;13.27;10.40;;;;;;;;;;4845487;29;20057;-68
2021/08/13 06:55:15;;;;;;;13.85;9.73;;;;;;;;;;4845675;29;20482;-68
2021/08/13 06:57:42;;;;;;;12.75;10.82;;;;;;;;;;4848615;29;20136;-68
2021/08/13 07:00:10;;;;;;;15.70;9.90;;;;;;;;;;4846235;29;20053;-69
2021/08/13 07:02:37;;;;;;;16.63;10.40;;;;;;;;;;4844030;29;20054;-68
2021/08/13 07:05:05;;;;;;;12.15;10.15;;;;;;;;;;4846319;29;20096;-68
2021/08/13 07:07:36;;;;;;;12.53;9.30;;;;;;;;;;4843699;29;20066;-68
2021/08/13 07:10:06;;;;;;;15.07;10.60;;;;;;;;;;4848379;29;20338;-67
2021/08/13 07:12:34;;;;;;;12.75;11.10;;;;;;;;;;4834953;29;20113;-68
2021/08/13 07:15:01;;;;;;;13.45;10.07;;;;;;;;;;4831806;29;20053;-67
2021/08/13 07:17:29;;;;;;;13.38;9.88;;;;;;;;;;4847186;29;20486;-68
2021/08/13 07:19:55;;;;;;;13.88;11.10;;;;;;;;;;4846106;29;20128;-68
2021/08/13 07:22:22;;;;;;;13.30;10.43;;;;;;;;;;4847027;29;20493;-68
2021/08/13 07:24:48;;;;;;;13.40;9.90;;;;;;;;;;4849436;29;20053;-68
2021/08/13 07:27:15;;;;;;;11.15;9.57;;;;;;;;;;4847193;29;20049;-68
2021/08/13 07:29:41;;;;;;;15.27;9.98;;;;;;;;;;4845632;29;20509;-68
2021/08/13 07:32:08;;;;;;;14.27;10.13;;;;;;;;;;4848748;29;20500;-68
2021/08/13 07:34:34;;;;;;;17.60;10.07;;;;;;;;;;4848170;29;20110;-68
2021/08/13 07:37:01;;;;;;;12.50;9.73;;;;;;;;;;4831843;29;20149;-68
2021/08/13 07:39:36;;;;;;;11.57;8.93;;;;;;;;;;4843915;29;20054;-68
2021/08/13 07:42:04;;;;;;;13.68;9.18;;;;;;;;;;4848620;29;20500;-68
2021/08/13 07:44:30;;;;;;;12.23;9.57;;;;;;;;;;4842889;29;20122;-68
2021/08/13 07:47:09;;;;;;;13.48;9.25;;;;;;;;;;4850817;29;20505;-68
2021/08/13 07:49:36;;;;;;;11.43;9.00;;;;;;;;;;4848296;29;20092;-68
2021/08/13 07:52:03;;;;;;;13.52;8.90;;;;;;;;;;4847388;29;20089;-68
2021/08/13 07:54:29;;;;;;;14.73;10.50;;;;;;;;;;4847953;29;20093;-68
2021/08/13 07:56:56;;;;;;;14.65;9.40;;;;;;;;;;4827422;29;20057;-68
2021/08/13 07:59:22;;;;;;;13.25;10.13;;;;;;;;;;4832669;29;20094;-68
2021/08/13 08:01:49;;;;;;;13.60;9.68;;;;;;;;;;4846629;29;20085;-68
2021/08/13 08:04:16;;;;;;;15.90;9.80;;;;;;;;;;4849284;29;20058;-68
2021/08/13 08:06:42;;;;;;;13.75;9.20;;;;;;;;;;4848437;29;20054;-66
2021/08/13 08:09:09;;;;;;;13.55;9.63;;;;;;;;;;4846083;29;20110;-67
2021/08/13 08:11:36;;;;;;;13.27;9.13;;;;;;;;;;4846469;29;20062;-67
2021/08/13 08:14:02;;;;;;;11.43;9.52;;;;;;;;;;4831780;29;20129;-67
2021/08/13 08:16:29;;;;;;;13.10;8.23;;;;;;;;;;4846490;29;20082;-67
2021/08/13 08:18:56;;;;;;;9.27;8.30;;;;;;;;;;4849367;29;20064;-68
2021/08/13 08:21:22;;;;;;;10.05;8.60;;;;;;;;;;4850344;29;20477;-70
2021/08/13 08:23:49;;;;;;;14.23;10.05;;;;;;;;;;4845647;29;20085;-67
2021/08/13 08:26:15;;;;;;;10.23;8.85;;;;;;;;;;4846272;29;20088;-67
2021/08/13 08:28:45;;;;;;;9.68;7.28;;;;;;;;;;4849606;29;20077;-68
2021/08/13 08:31:12;;;;;;;12.38;7.93;;;;;;;;;;4851687;29;20053;-67
2021/08/13 08:33:39;;;;;;;11.52;8.52;;;;;;;;;;4848813;29;20050;-69
2021/08/13 08:36:06;;;;;;;12.93;8.15;;;;;;;;;;4851772;29;20217;-67
2021/08/13 08:38:33;;;;;;;9.48;7.53;;;;;;;;;;4849670;29;20086;-70
2021/08/13 08:41:04;;;;;;;9.35;7.05;;;;;;;;;;4850213;29;20484;-68
2021/08/13 08:43:31;;;;;;;12.80;8.05;;;;;;;;;;4848436;29;20058;-68
2021/08/13 08:45:59;;;;;;;9.70;7.45;;;;;;;;;;4850870;29;20052;-68
2021/08/13 08:48:37;;;;;;;9.88;7.43;;;;;;;;;;4836932;29;20314;-68
2021/08/13 08:51:05;;;;;;;9.73;7.68;;;;;;;;;;4847856;29;20102;-68
2021/08/13 08:53:33;;;;;;;10.50;7.80;;;;;;;;;;4849533;29;20085;-68
2021/08/13 08:56:00;;;;;;;11.77;7.18;;;;;;;;;;4848120;29;20505;-68
2021/08/13 08:58:30;;;;;;;12.23;7.30;;;;;;;;;;4854499;29;20053;-71
2021/08/13 09:00:57;;;;;;;9.50;7.10;;;;;;;;;;4833140;29;20053;-68
2021/08/13 09:03:24;;;;;;;12.32;7.05;;;;;;;;;;4849124;29;20059;-69
2021/08/13 09:05:51;;;;;;;10.60;6.97;;;;;;;;;;4848696;29;20134;-66
2021/08/13 09:08:18;;;;;;;12.65;7.13;;;;;;;;;;4855472;29;20077;-71
2021/08/13 09:10:45;;;;;;;8.30;6.40;;;;;;;;;;4835776;29;20072;-72
2021/08/13 09:13:12;;;;;;;11.05;7.07;;;;;;;;;;4848247;29;20081;-67
2021/08/13 09:15:39;;;;;;;8.70;6.82;;;;;;;;;;4849093;29;20085;-70
2021/08/13 09:18:25;;;;;;;8.55;7.20;;;;;;;;;;4849754;29;20053;-67
2021/08/13 09:21:00;;;;;;;11.77;7.03;;;;;;;;;;4853319;29;20107;-72
2021/08/13 09:23:41;;;;;;;8.60;6.80;;;;;;;;;;4850194;29;20064;-73
2021/08/13 09:26:10;;;;;;;8.80;6.25;;;;;;;;;;4849441;29;20513;-72
2021/08/13 09:28:43;;;;;;;8.35;6.28;;;;;;;;;;4847462;29;20085;-65
2021/08/13 09:31:21;;;;;;;9.15;7.15;;;;;;;;;;4850846;29;20080;-65
2021/08/13 09:33:50;;;;;;;9.40;7.22;;;;;;;;;;4847958;29;20056;-66
2021/08/13 09:36:24;;;;;;;7.53;6.03;;;;;;;;;;4854671;29;20131;-65
2021/08/13 09:39:06;;;;;;;9.68;6.68;;;;;;;;;;4848151;29;20174;-66
2021/08/13 09:41:49;;;;;;;7.50;6.30;;;;;;;;;;4864303;29;20141;-63
2021/08/13 09:44:30;;;;;;;8.27;6.30;;;;;;;;;;4847727;29;20081;-64
2021/08/13 09:47:01;;;;;;;7.43;5.80;;;;;;;;;;4850296;29;20210;-65
2021/08/13 09:49:29;;;;;;;6.53;5.80;;;;;;;;;;4849516;29;20539;-65
2021/08/13 09:51:56;;;;;;;6.40;5.25;;;;;;;;;;4853889;29;20149;-64
2021/08/13 09:54:27;;;;;;;6.95;5.35;;;;;;;;;;4850085;29;20080;-65
2021/08/13 09:56:53;;;;;;;7.18;5.63;;;;;;;;;;4864961;29;20085;-65
2021/08/13 09:59:20;;;;;;;9.18;5.50;;;;;;;;;;4849056;29;20081;-64
2021/08/13 10:01:48;;;;;;;5.95;5.35;;;;;;;;;;4851553;29;20095;-65
2021/08/13 10:04:17;;;;;;;6.47;5.20;;;;;;;;;;4849818;29;20094;-65
2021/08/13 10:06:44;;;;;;;6.40;5.63;;;;;;;;;;4847175;29;20081;-65
2021/08/13 10:09:27;;;;;;;10.15;6.70;;;;;;;;;;4852605;29;20087;-65
2021/08/13 10:12:07;;;;;;;10.07;6.15;;;;;;;;;;4858887;29;20137;-64
2021/08/13 10:14:34;;;;;;;8.68;5.65;;;;;;;;;;4873636;23;20061;-65
2021/08/13 10:17:18;;;;;;;8.18;5.60;;;;;;;;;;4937740;29;20036;-63
2021/08/13 10:19:49;;;;;;;11.48;6.32;;;;;;;;;;4930460;29;20044;-63
2021/08/13 10:22:18;;;;;;;8.88;6.22;;;;;;;;;;4926065;29;20052;-63
2021/08/13 10:24:45;;;;;;;6.85;5.78;;;;;;;;;;4931394;29;20036;-63
2021/08/13 10:27:13;;;;;;;7.28;5.55;;;;;;;;;;4929195;29;20040;-63
2021/08/13 10:29:41;;;;;;;9.77;6.20;;;;;;;;;;4928631;29;20036;-63
2021/08/13 10:32:08;;;;;;;9.18;5.97;;;;;;;;;;4938807;29;20048;-63
2021/08/13 10:34:34;;;;;;;7.28;6.18;;;;;;;;;;4937487;29;20036;-63
2021/08/13 10:37:10;;;;;;;9.52;6.75;;;;;;;;;;4925769;29;20039;-63
2021/08/13 10:39:36;;;;;;;8.90;6.28;;;;;;;;;;4940301;29;20454;-63
2021/08/13 10:42:03;;;;;;;9.40;6.55;;;;;;;;;;4931017;29;20067;-64
2021/08/13 10:44:42;;;;;;;7.50;5.63;;;;;;;;;;4927214;29;20029;-63
2021/08/13 10:47:11;;;;;;;8.48;6.22;;;;;;;;;;4937921;29;20048;-64
2021/08/13 10:49:38;;;;;;;10.70;6.57;;;;;;;;;;4919202;29;20048;-64
2021/08/13 10:52:06;;;;;;;10.48;6.65;;;;;;;;;;4918271;29;20039;-67
2021/08/13 10:54:45;;;;;;;8.82;6.28;;;;;;;;;;4930749;29;20056;-65
2021/08/13 10:57:13;;;;;;;11.57;6.43;;;;;;;;;;4936586;29;20044;-63
2021/08/13 10:59:39;;;;;;;7.45;6.43;;;;;;;;;;4936997;29;20032;-63
2021/08/13 11:02:11;;;;;;;8.27;6.55;;;;;;;;;;4933733;29;20071;-62
2021/08/13 11:04:42;;;;;;;9.73;5.93;;;;;;;;;;4929452;29;20039;-64
2021/08/13 11:07:10;;;;;;;8.68;6.07;;;;;;;;;;4928150;29;20361;-63
2021/08/13 11:09:37;;;;;;;9.30;6.60;;;;;;;;;;4929829;29;20036;-64
2021/08/13 11:12:15;;;;;;;8.70;6.07;;;;;;;;;;4934942;29;20059;-63
2021/08/13 11:14:46;;;;;;;10.95;7.18;;;;;;;;;;4927260;29;20035;-63
2021/08/13 11:17:32;;;;;;;10.73;6.88;;;;;;;;;;4935003;29;20054;-62
2021/08/13 11:20:01;;;;;;;9.70;7.22;;;;;;;;;;4933202;29;20024;-63
2021/08/13 11:22:29;;;;;;;9.48;6.05;;;;;;;;;;4944855;29;20032;-63
2021/08/13 11:24:55;;;;;;;10.20;7.07;;;;;;;;;;4931676;29;20044;-64
2021/08/13 11:27:22;;;;;;;9.93;6.55;;;;;;;;;;4928274;29;20056;-72
2021/08/13 11:29:49;;;;;;;7.30;6.05;;;;;;;;;;4915089;29;20067;-71
2021/08/13 11:32:17;;;;;;;8.98;6.70;;;;;;;;;;4897290;29;20085;-72
2021/08/13 11:34:51;;;;;;;9.63;6.93;;;;;;;;;;4897160;29;20048;-71
2021/08/13 11:37:27;;;;;;;8.18;6.65;;;;;;;;;;4880374;29;20048;-72
2021/08/13 11:39:55;;;;;;;6.88;6.25;;;;;;;;;;4897058;29;20338;-70
2021/08/13 11:42:22;;;;;;;10.73;7.07;;;;;;;;;;4915362;29;20527;-71
2021/08/13 11:44:50;;;;;;;8.90;6.32;;;;;;;;;;4905303;29;20478;-70
2021/08/13 11:47:19;;;;;;;9.77;6.80;;;;;;;;;;4908277;29;20052;-72
2021/08/13 11:49:46;;;;;;;9.93;7.30;;;;;;;;;;4903669;29;20052;-70
2021/08/13 11:52:23;;;;;;;11.43;7.07;;;;;;;;;;4902605;29;20079;-71
2021/08/13 11:54:50;;;;;;;9.02;5.93;;;;;;;;;;4905775;29;20056;-73
2021/08/13 11:57:22;;;;;;;6.85;6.18;;;;;;;;;;4903009;29;20052;-71
2021/08/13 11:59:50;;;;;;;7.97;7.18;;;;;;;;;;4901405;29;20091;-69
2021/08/13 12:02:27;;;;;;;8.50;6.55;;;;;;;;;;4903843;29;20057;-67
2021/08/13 12:05:08;;;;;;;8.43;6.03;;;;;;;;;;4903173;29;20047;-68
2021/08/13 12:07:35;;;;;;;10.90;6.78;;;;;;;;;;4904341;29;20048;-67
2021/08/13 12:10:12;;;;;;;10.35;6.53;;;;;;;;;;4906222;29;20080;-68
2021/08/13 12:12:40;;;;;;;11.13;6.07;;;;;;;;;;4904104;29;20538;-68
2021/08/13 12:15:07;;;;;;;10.60;5.75;;;;;;;;;;4901771;29;20084;-68
2021/08/13 12:17:34;;;;;;;10.70;6.78;;;;;;;;;;4908396;29;20074;-67
2021/08/13 12:20:04;;;;;;;8.02;6.53;;;;;;;;;;4916603;29;20487;-68
2021/08/13 12:22:35;;;;;;;9.02;6.70;;;;;;;;;;4906538;29;20044;-72
2021/08/13 12:25:03;;;;;;;7.67;5.70;;;;;;;;;;4903447;24;20073;-73
2021/08/13 12:27:32;;;;;;;8.85;6.18;;;;;;;;;;4856843;29;20053;-75
2021/08/13 12:29:59;;;;;;;9.75;7.72;;;;;;;;;;4858941;29;20045;-65
2021/08/13 12:32:40;;;;;;;8.27;6.13;;;;;;;;;;4858844;29;20055;-65
2021/08/13 12:35:09;;;;;;;7.75;6.30;;;;;;;;;;4858457;29;20120;-66
2021/08/13 12:37:36;;;;;;;9.38;6.60;;;;;;;;;;4858092;29;20136;-63
2021/08/13 12:40:04;;;;;;;9.30;7.65;;;;;;;;;;4858395;29;20136;-64
2021/08/13 12:42:31;;;;;;;7.93;5.65;;;;;;;;;;4856943;29;20081;-65
2021/08/13 12:44:59;;;;;;;6.43;5.60;;;;;;;;;;4858401;29;20070;-64
2021/08/13 12:47:26;;;;;;;9.10;5.97;;;;;;;;;;4856656;29;20093;-65
2021/08/13 12:49:52;;;;;;;7.78;5.90;;;;;;;;;;4857327;29;20106;-64
2021/08/13 12:52:24;;;;;;;7.70;6.32;;;;;;;;;;4855357;29;20121;-63
2021/08/13 12:54:52;;;;;;;7.57;6.38;;;;;;;;;;4857798;29;20084;-64
2021/08/13 12:57:19;;;;;;;6.30;5.60;;;;;;;;;;4858039;29;20096;-64
2021/08/13 12:59:59;;;;;;;9.73;6.15;;;;;;;;;;4858170;29;20513;-68
2021/08/13 13:02:26;;;;;;;7.97;5.70;;;;;;;;;;4857859;29;20049;-67
2021/08/13 13:04:53;;;;;;;9.57;5.00;;;;;;;;;;4858299;29;20439;-68
2021/08/13 13:07:31;;;;;;;9.77;5.45;;;;;;;;;;4853190;29;20078;-69
2021/08/13 13:09:58;;;;;;;7.20;5.80;;;;;;;;;;4856024;29;20061;-66
2021/08/13 13:12:28;;;;;;;7.75;5.22;;;;;;;;;;4857565;29;20092;-67
2021/08/13 13:14:58;;;;;;;7.40;5.80;;;;;;;;;;4859637;29;20092;-66
2021/08/13 13:17:25;;;;;;;6.20;5.20;;;;;;;;;;4861225;29;20056;-66
2021/08/13 13:20:12;;;;;;;7.65;5.50;;;;;;;;;;4861463;29;20081;-66
2021/08/13 13:23:01;;;;;;;6.93;5.40;;;;;;;;;;4859033;29;20045;-66
2021/08/13 13:25:41;;;;;;;7.95;4.97;;;;;;;;;;4860898;29;20100;-66
2021/08/13 13:28:08;;;;;;;6.65;5.60;;;;;;;;;;4861395;29;20085;-66
2021/08/13 13:30:40;;;;;;;6.72;4.75;;;;;;;;;;4861088;29;20096;-66
2021/08/13 13:33:12;;;;;;;5.47;4.53;;;;;;;;;;4860871;29;20472;-66
2021/08/13 13:35:42;;;;;;;;;;;;;;;;;;4862819;29;20052;-66
2021/08/13 13:38:12;;;;;;;6.57;4.28;;;;;;;;;;4860156;29;19967;-66
2021/08/13 13:40:41;;;;;;;6.88;4.80;;;;;;;;;;4860669;29;20088;-66
2021/08/13 13:43:08;;;;;;;5.85;4.47;;;;;;;;;;4860519;29;20081;-66
2021/08/13 13:45:38;;;;;;;7.90;5.00;;;;;;;;;;4860933;29;20045;-66
2021/08/13 13:48:05;;;;;;;5.05;4.55;;;;;;;;;;4860334;29;20049;-66
2021/08/13 13:50:32;;;;;;;7.32;5.30;;;;;;;;;;4860762;29;20101;-66
2021/08/13 13:52:58;;;;;;;6.13;5.20;;;;;;;;;;4859805;29;20516;-66
2021/08/13 13:55:25;;;;;;;6.38;4.70;;;;;;;;;;4858908;29;20081;-65
2021/08/13 13:57:53;;;;;;;6.88;5.32;;;;;;;;;;4860501;29;20084;-65
2021/08/13 14:00:20;;;;;;;5.32;4.80;;;;;;;;;;4859362;29;20148;-65
2021/08/13 14:02:47;;;;;;;6.95;4.53;;;;;;;;;;4860542;29;20077;-65
2021/08/13 14:05:14;;;;;;;5.93;4.40;;;;;;;;;;4860515;29;20057;-65
2021/08/13 14:07:43;;;;;;;5.97;4.75;;;;;;;;;;4860626;29;20466;-65
2021/08/13 14:10:11;;;;;;;5.53;4.70;;;;;;;;;;4856888;29;20085;-65
2021/08/13 14:12:38;;;;;;;5.93;4.75;;;;;;;;;;4854210;29;20132;-65
2021/08/13 14:15:12;;;;;;;6.10;4.68;;;;;;;;;;4857709;29;20105;-66
2021/08/13 14:17:39;;;;;;;7.28;4.50;;;;;;;;;;4860954;29;20053;-65
2021/08/13 14:20:07;;;;;;;5.63;4.57;;;;;;;;;;4860701;29;20053;-65
2021/08/13 14:22:34;;;;;;;7.88;5.15;;;;;;;;;;4860965;29;20458;-65
2021/08/13 14:25:01;;;;;;;8.27;5.13;;;;;;;;;;4861194;29;20108;-66
2021/08/13 14:27:27;;;;;;;8.40;4.63;;;;;;;;;;4863987;29;20103;-65
2021/08/13 14:29:54;;;;;;;6.38;5.13;;;;;;;;;;4861841;29;20485;-66
2021/08/13 14:32:20;;;;;;;8.70;4.82;;;;;;;;;;4860989;29;20092;-65
2021/08/13 14:34:47;;;;;;;7.47;5.05;;;;;;;;;;4862406;29;20125;-65
2021/08/13 14:37:13;;;;;;;7.68;5.05;;;;;;;;;;4859521;29;20791;-71
2021/08/13 14:39:40;;;;;;;7.90;4.70;;;;;;;;;;4859189;29;20085;-65
2021/08/13 14:42:07;;;;;;;5.47;4.97;;;;;;;;;;4858282;29;20085;-65
2021/08/13 14:44:34;;;;;;;6.65;4.90;;;;;;;;;;4858731;29;20524;-68
2021/08/13 14:47:02;;;;;;;5.85;4.53;;;;;;;;;;4860270;29;20453;-69
2021/08/13 14:49:29;;;;;;;7.00;5.63;;;;;;;;;;4860520;29;20073;-68
2021/08/13 14:51:56;;;;;;;6.32;5.15;;;;;;;;;;4858609;29;20132;-68
2021/08/13 14:54:24;;;;;;;12.98;5.40;;;;;;;;;;4858358;29;20536;-67
2021/08/13 14:56:51;;;;;;;6.57;5.22;;;;;;;;;;4859716;29;20598;-66
2021/08/13 14:59:18;;;;;;;6.00;5.40;;;;;;;;;;4859659;29;20080;-67
2021/08/13 15:01:45;;;;;;;8.20;5.22;;;;;;;;;;4858635;29;20482;-66
2021/08/13 15:04:12;;;;;;;6.65;4.85;;;;;;;;;;4858657;29;20057;-67
2021/08/13 15:06:38;;;;;;;5.07;4.65;;;;;;;;;;4859387;29;20081;-68
2021/08/13 15:09:05;;;;;;;8.30;5.18;;;;;;;;;;4859604;29;20101;-68
2021/08/13 15:11:34;;;;;;;7.43;5.28;;;;;;;;;;4856080;29;20530;-68
2021/08/13 15:14:00;;;;;;;6.00;5.40;;;;;;;;;;4860152;29;20081;-68
2021/08/13 15:16:27;;;;;;;7.35;5.30;;;;;;;;;;4859528;29;20429;-68
2021/08/13 15:18:54;;;;;;;5.35;4.75;;;;;;;;;;4858708;29;20049;-68
2021/08/13 15:21:20;;;;;;;7.43;5.50;;;;;;;;;;4859849;29;20058;-68
2021/08/13 15:23:47;;;;;;;6.07;5.47;;;;;;;;;;4859418;29;20081;-68
2021/08/13 15:26:14;;;;;;;6.72;5.43;;;;;;;;;;4859265;29;20088;-68
2021/08/13 15:28:40;;;;;;;7.70;5.20;;;;;;;;;;4859370;29;20080;-68
2021/08/13 15:31:07;;;;;;;8.00;5.45;;;;;;;;;;4859026;29;20057;-68
2021/08/13 15:33:33;;;;;;;8.27;5.30;;;;;;;;;;4859370;29;20057;-67
2021/08/13 15:36:00;;;;;;;5.95;5.28;;;;;;;;;;4860094;29;20133;-68
2021/08/13 15:38:26;;;;;;;9.80;5.60;;;;;;;;;;4858490;29;20081;-68
2021/08/13 15:40:53;;;;;;;8.52;5.35;;;;;;;;;;4856392;29;20077;-67
2021/08/13 15:43:20;;;;;;;8.95;5.93;;;;;;;;;;4858858;29;20077;-67
2021/08/13 15:45:47;;;;;;;8.95;5.53;;;;;;;;;;4859010;29;20185;-67
2021/08/13 15:48:13;;;;;;;6.40;5.25;;;;;;;;;;4858542;29;20057;-67
2021/08/13 15:50:40;;;;;;;9.88;5.40;;;;;;;;;;4858849;29;20073;-67
2021/08/13 15:53:08;;;;;;;11.23;5.20;;;;;;;;;;4858466;29;20081;-67
2021/08/13 15:55:35;;;;;;;6.05;5.30;;;;;;;;;;4858807;29;20081;-67
2021/08/13 15:58:02;;;;;;;6.30;5.53;;;;;;;;;;4858730;29;20084;-69
2021/08/13 16:00:28;;;;;;;7.22;5.63;;;;;;;;;;4857467;29;20144;-68
2021/08/13 16:02:55;;;;;;;6.30;5.60;;;;;;;;;;4859047;29;20109;-68
2021/08/13 16:05:22;;;;;;;7.93;6.32;;;;;;;;;;4858792;29;20436;-68
2021/08/13 16:07:48;;;;;;;7.35;6.03;;;;;;;;;;4858579;29;20078;-68
2021/08/13 16:10:16;;;;;;;8.05;5.85;;;;;;;;;;4856461;29;20572;-68
2021/08/13 16:12:42;;;;;;;8.27;6.38;;;;;;;;;;4858731;29;20045;-68
2021/08/13 16:15:09;;;;;;;8.40;6.13;;;;;;;;;;4874688;23;20425;-69
2021/08/13 16:17:36;;;;;;;10.38;6.22;;;;;;;;;;4887086;29;20578;-68
2021/08/13 16:20:03;;;;;;;7.72;6.05;;;;;;;;;;4883252;29;20139;-69
2021/08/13 16:22:30;;;;;;;8.43;5.75;;;;;;;;;;4890291;29;20085;-68
2021/08/13 16:24:56;;;;;;;8.68;6.57;;;;;;;;;;4885500;29;20092;-69
2021/08/13 16:27:23;;;;;;;8.23;6.20;;;;;;;;;;4883819;29;20084;-69
2021/08/13 16:29:49;;;;;;;7.57;6.15;;;;;;;;;;4887650;29;20087;-69
2021/08/13 16:32:16;;;;;;;7.43;5.93;;;;;;;;;;4887568;29;20508;-69
2021/08/13 16:34:42;;;;;;;13.02;6.13;;;;;;;;;;4889777;29;20087;-69
2021/08/13 16:37:09;;;;;;;8.45;6.22;;;;;;;;;;4891205;29;20083;-68
2021/08/13 16:39:36;;;;;;;6.22;5.63;;;;;;;;;;4884338;29;20080;-69
2021/08/13 16:42:03;;;;;;;11.30;6.32;;;;;;;;;;4887231;29;20095;-69
2021/08/13 16:44:30;;;;;;;10.38;5.82;;;;;;;;;;4886534;29;20108;-69
2021/08/13 16:46:57;;;;;;;9.63;6.35;;;;;;;;;;4889188;29;20419;-69
2021/08/13 16:49:23;;;;;;;7.75;6.35;;;;;;;;;;4883781;29;20049;-70
2021/08/13 16:51:50;;;;;;;10.45;6.80;;;;;;;;;;4889578;29;20467;-69
2021/08/13 16:54:16;;;;;;;10.25;7.30;;;;;;;;;;4888478;29;20095;-69
2021/08/13 16:56:43;;;;;;;11.52;6.47;;;;;;;;;;4888258;29;20092;-69
2021/08/13 16:59:09;;;;;;;13.98;6.68;;;;;;;;;;4885976;29;20096;-69
2021/08/13 17:01:36;;;;;;;11.38;6.60;;;;;;;;;;4884083;29;20500;-69
2021/08/13 17:04:03;;;;;;;11.38;6.30;;;;;;;;;;4886098;29;20056;-69
2021/08/13 17:06:30;;;;;;;6.80;6.07;;;;;;;;;;4886448;29;20088;-69
2021/08/13 17:08:56;;;;;;;6.93;5.90;;;;;;;;;;4887315;29;20084;-70
2021/08/13 17:11:23;;;;;;;7.60;5.93;;;;;;;;;;4887327;29;20064;-70
2021/08/13 17:13:49;;;;;;;10.90;5.95;;;;;;;;;;4887503;29;20128;-69
2021/08/13 17:16:16;;;;;;;9.13;6.07;;;;;;;;;;4890071;29;20083;-70
2021/08/13 17:18:43;;;;;;;8.63;5.68;;;;;;;;;;4888126;29;20477;-69
2021/08/13 17:21:10;;;;;;;9.65;6.00;;;;;;;;;;4889467;29;20152;-69
2021/08/13 17:23:37;;;;;;;8.43;5.45;;;;;;;;;;4888199;29;20084;-70
2021/08/13 17:26:03;;;;;;;12.65;6.30;;;;;;;;;;4885281;29;20147;-69
2021/08/13 17:28:31;;;;;;;7.38;5.70;;;;;;;;;;4886125;29;20556;-70
2021/08/13 17:30:58;;;;;;;9.40;6.05;;;;;;;;;;4886842;29;20103;-69
2021/08/13 17:33:24;;;;;;;8.77;5.70;;;;;;;;;;4903166;29;20052;-70
2021/08/13 17:35:51;;;;;;;11.07;5.80;;;;;;;;;;4887674;29;20080;-69
2021/08/13 17:38:17;;;;;;;13.75;5.95;;;;;;;;;;4884240;29;20135;-69
2021/08/13 17:40:44;;;;;;;8.88;5.53;;;;;;;;;;4888275;29;20575;-69
2021/08/13 17:43:10;;;;;;;6.82;5.38;;;;;;;;;;4889600;29;20080;-69
2021/08/13 17:45:37;;;;;;;7.63;5.70;;;;;;;;;;4888166;29;20084;-68
2021/08/13 17:48:04;;;;;;;9.10;5.70;;;;;;;;;;4886404;29;20525;-68
2021/08/13 17:50:30;;;;;;;7.75;5.70;;;;;;;;;;4887047;29;20104;-67
2021/08/13 17:52:57;;;;;;;9.65;5.10;;;;;;;;;;4888901;29;20049;-70
2021/08/13 17:55:24;;;;;;;12.32;5.75;;;;;;;;;;4900469;29;20088;-68
2021/08/13 17:57:50;;;;;;;11.00;4.78;;;;;;;;;;4887034;29;20504;-69